Time;durP1;ratioP1;P1;durP2;ratioP2;P2;SDS_P1;SDS_P2;PMS_P1;PMS_P2;Temp;Humidity;BMP_temperature;BMP_pressure;BME280_temperature;BME280_humidity;BME280_pressure;Samples;Min_cycle;Max_cycle;Signal;HPM_P1;HPM_P2
2022/05/19 00:01:15;;;;;;;25.27;17.70;;;18.20;99.90;;;;;;5095909;28;20476;-89
2022/05/19 00:03:40;;;;;;;27.15;17.35;;;18.20;99.90;;;;;;5079763;28;20091;-89
2022/05/19 00:06:09;;;;;;;17.95;15.73;;;18.10;99.90;;;;;;5081775;28;20031;-89
2022/05/19 00:08:35;;;;;;;20.77;16.75;;;18.10;99.90;;;;;;5095928;28;20058;-89
2022/05/19 00:11:05;;;;;;;28.15;19.02;;;18.10;99.90;;;;;;5082104;28;20100;-88
2022/05/19 00:13:32;;;;;;;23.77;17.77;;;18.00;99.90;;;;;;5095351;28;20119;-89
2022/05/19 00:15:58;;;;;;;27.25;17.40;;;17.90;99.90;;;;;;5116148;28;20047;-89
2022/05/19 00:18:24;;;;;;;19.50;16.25;;;18.00;99.90;;;;;;5080141;28;20061;-89
2022/05/19 00:20:50;;;;;;;23.38;16.58;;;17.90;99.90;;;;;;5095881;28;20044;-88
2022/05/19 00:23:16;;;;;;;25.25;18.30;;;17.90;99.90;;;;;;5078739;28;20488;-88
2022/05/19 00:25:42;;;;;;;23.00;17.70;;;17.80;99.90;;;;;;5114129;28;20693;-88
2022/05/19 00:28:08;;;;;;;26.05;19.25;;;17.80;99.90;;;;;;5080789;28;20075;-89
2022/05/19 00:30:35;;;;;;;25.98;19.52;;;17.80;99.90;;;;;;5084316;28;20501;-89
2022/05/19 00:33:00;;;;;;;25.00;19.05;;;17.80;99.90;;;;;;5097499;28;20043;-89
2022/05/19 00:35:26;;;;;;;21.02;17.13;;;17.80;99.90;;;;;;5096556;28;20540;-89
2022/05/19 00:37:52;;;;;;;22.38;18.27;;;17.80;99.90;;;;;;5098928;28;20086;-89
2022/05/19 00:40:19;;;;;;;22.17;16.80;;;17.70;99.90;;;;;;5096860;28;20036;-88
2022/05/19 00:42:45;;;;;;;25.83;17.77;;;17.70;99.90;;;;;;5094368;28;20446;-88
2022/05/19 00:45:17;;;;;;;21.42;16.85;;;17.60;99.90;;;;;;5097446;28;20043;-88
2022/05/19 00:47:49;;;;;;;23.45;17.73;;;17.50;99.90;;;;;;5111809;28;20051;-88
2022/05/19 00:50:33;;;;;;;28.08;18.90;;;17.40;99.90;;;;;;5113741;28;20154;-89
2022/05/19 00:53:12;;;;;;;22.20;17.98;;;17.40;99.90;;;;;;5099014;28;20532;-89
2022/05/19 00:55:43;;;;;;;24.08;17.33;;;17.30;99.90;;;;;;5095178;28;20039;-89
2022/05/19 00:58:25;;;;;;;25.33;18.83;;;17.20;99.90;;;;;;5097346;28;20027;-88
2022/05/19 01:00:51;;;;;;;26.15;21.00;;;17.20;99.90;;;;;;5110620;27;20039;-89
2022/05/19 01:03:18;;;;;;;29.00;20.60;;;17.20;99.90;;;;;;5103091;27;20035;-89
2022/05/19 01:05:48;;;;;;;26.92;20.52;;;17.20;99.90;;;;;;5098269;27;20167;-88
2022/05/19 01:08:21;;;;;;;26.10;20.25;;;17.20;99.90;;;;;;5120775;27;20035;-89
2022/05/19 01:10:48;;;;;;;25.70;19.52;;;17.20;99.90;;;;;;5115695;27;20122;-88
2022/05/19 01:13:15;;;;;;;25.23;18.73;;;17.30;99.90;;;;;;5086713;27;20075;-89
2022/05/19 01:15:45;;;;;;;24.05;18.83;;;17.20;99.90;;;;;;5081588;27;20620;-89
2022/05/19 01:18:13;;;;;;;25.25;18.13;;;17.20;99.90;;;;;;5117369;27;20027;-89
2022/05/19 01:20:39;;;;;;;24.80;18.85;;;17.20;99.90;;;;;;5103783;27;20434;-90
2022/05/19 01:23:23;;;;;;;25.52;18.65;;;17.20;99.90;;;;;;5102741;27;20046;-90
2022/05/19 01:26:04;;;;;;;24.83;18.95;;;17.20;99.90;;;;;;5120087;27;20126;-89
2022/05/19 01:28:30;;;;;;;24.48;18.67;;;17.20;99.90;;;;;;5102036;27;20043;-89
2022/05/19 01:30:56;;;;;;;26.75;18.90;;;17.10;99.90;;;;;;5083183;27;20046;-89
2022/05/19 01:33:22;;;;;;;27.58;20.20;;;17.10;99.90;;;;;;5105493;27;20050;-90
2022/05/19 01:35:47;;;;;;;27.20;18.55;;;17.10;99.90;;;;;;5101773;27;20036;-89
2022/05/19 01:38:30;;;;;;;23.35;19.73;;;17.10;99.90;;;;;;5116198;27;20053;-89
2022/05/19 01:41:17;;;;;;;26.83;18.35;;;17.10;99.90;;;;;;5119288;27;20039;-89
2022/05/19 01:44:03;;;;;;;28.35;20.20;;;17.10;99.90;;;;;;5118904;27;20046;-89
2022/05/19 01:46:33;;;;;;;25.02;18.55;;;17.00;99.90;;;;;;5102743;27;20154;-89
2022/05/19 01:49:15;;;;;;;29.88;20.10;;;17.00;99.90;;;;;;5103527;27;20042;-90
2022/05/19 01:52:06;;;;;;;28.48;21.20;;;17.00;99.90;;;;;;5117063;27;20085;-89
2022/05/19 01:54:54;;;;;;;25.83;20.70;;;17.00;99.90;;;;;;5100299;27;20032;-88
2022/05/19 01:57:38;;;;;;;29.73;20.95;;;17.00;99.90;;;;;;5096726;27;20046;-89
2022/05/19 02:00:12;;;;;;;27.73;21.00;;;16.90;99.90;;;;;;5099891;27;20027;-89
2022/05/19 02:03:00;;;;;;;29.88;21.90;;;16.90;99.90;;;;;;5098400;27;20352;-89
2022/05/19 02:05:54;;;;;;;24.75;20.58;;;16.90;99.90;;;;;;5114929;27;20044;-90
2022/05/19 02:08:27;;;;;;;30.67;21.83;;;16.90;99.90;;;;;;5118952;27;20437;-89
2022/05/19 02:10:58;;;;;;;28.33;22.08;;;16.80;99.90;;;;;;5119611;27;20391;-89
2022/05/19 02:13:26;;;;;;;28.30;20.73;;;16.80;99.90;;;;;;5097808;27;20043;-89
2022/05/19 02:15:53;;;;;;;30.15;20.80;;;16.80;99.90;;;;;;5100667;27;20047;-88
2022/05/19 02:18:24;;;;;;;27.48;22.02;;;16.80;99.90;;;;;;5077640;27;20050;-89
2022/05/19 02:20:52;;;;;;;30.70;21.45;;;16.80;99.90;;;;;;5101344;27;20038;-88
2022/05/19 02:23:17;;;;;;;25.63;21.77;;;16.80;99.90;;;;;;5100601;27;20058;-89
2022/05/19 02:25:46;;;;;;;28.35;22.17;;;16.80;99.90;;;;;;5081835;28;20082;-89
2022/05/19 02:28:15;;;;;;;28.08;22.23;;;16.80;99.90;;;;;;5100073;27;20043;-88
2022/05/19 02:30:42;;;;;;;29.15;22.90;;;16.80;99.90;;;;;;5100202;27;20521;-88
2022/05/19 02:33:08;;;;;;;28.35;21.50;;;16.70;99.90;;;;;;5097885;27;20038;-88
2022/05/19 02:35:34;;;;;;;29.23;21.80;;;16.60;99.90;;;;;;5097844;27;20039;-89
2022/05/19 02:38:00;;;;;;;30.15;22.73;;;16.70;99.90;;;;;;5098019;28;20383;-89
2022/05/19 02:40:30;;;;;;;29.05;21.98;;;16.70;99.90;;;;;;5080196;27;20122;-88
2022/05/19 02:42:56;;;;;;;26.30;21.00;;;16.70;99.90;;;;;;5096635;27;20052;-88
2022/05/19 02:45:23;;;;;;;28.88;22.88;;;16.70;99.90;;;;;;5087244;27;20485;-88
2022/05/19 02:47:49;;;;;;;31.92;23.67;;;16.70;99.90;;;;;;5099789;27;20479;-89
2022/05/19 02:50:17;;;;;;;29.48;23.00;;;16.70;99.90;;;;;;5100409;27;20044;-88
2022/05/19 02:52:43;;;;;;;32.78;23.08;;;16.70;99.90;;;;;;5113069;27;20165;-89
2022/05/19 02:55:09;;;;;;;35.20;24.20;;;16.60;99.90;;;;;;5116782;27;20053;-88
2022/05/19 02:57:35;;;;;;;30.85;23.92;;;16.60;99.90;;;;;;5082838;27;20546;-88
2022/05/19 03:00:00;;;;;;;29.50;23.45;;;16.60;99.90;;;;;;5099451;27;20168;-88
2022/05/19 03:02:26;;;;;;;33.63;23.52;;;16.60;99.90;;;;;;5084439;27;20046;-88
2022/05/19 03:04:52;;;;;;;32.15;24.02;;;16.60;99.90;;;;;;5099065;27;20391;-88
2022/05/19 03:07:19;;;;;;;29.20;24.20;;;16.50;99.90;;;;;;5098311;27;20039;-88
2022/05/19 03:09:45;;;;;;;28.63;22.70;;;16.60;99.90;;;;;;5095598;27;20127;-88
2022/05/19 03:12:12;;;;;;;29.98;25.05;;;16.60;99.90;;;;;;5065705;27;20119;-88
2022/05/19 03:14:38;;;;;;;32.17;25.27;;;16.60;99.90;;;;;;5093180;28;20496;-88
2022/05/19 03:17:10;;;;;;;30.27;25.00;;;16.60;99.90;;;;;;5082938;28;20141;-88
2022/05/19 03:19:37;;;;;;;32.80;24.92;;;16.50;99.90;;;;;;5100353;27;20042;-88
2022/05/19 03:22:05;;;;;;;29.38;24.02;;;16.50;99.90;;;;;;5097657;27;20390;-88
2022/05/19 03:24:31;;;;;;;33.30;24.55;;;16.50;99.90;;;;;;5098324;28;20066;-88
2022/05/19 03:26:57;;;;;;;33.22;25.58;;;16.50;99.90;;;;;;5100164;28;20047;-87
2022/05/19 03:29:23;;;;;;;30.73;25.10;;;16.50;99.90;;;;;;5071581;27;20070;-88
2022/05/19 03:31:49;;;;;;;33.08;25.50;;;16.50;99.90;;;;;;5100882;28;20042;-89
2022/05/19 03:34:18;;;;;;;34.17;25.88;;;16.50;99.90;;;;;;5118035;27;20088;-89
2022/05/19 03:36:45;;;;;;;36.67;26.92;;;16.50;99.90;;;;;;5101814;27;20047;-89
2022/05/19 03:39:11;;;;;;;35.55;26.75;;;16.50;99.90;;;;;;5095881;27;20031;-89
2022/05/19 03:41:37;;;;;;;30.27;25.17;;;16.50;99.90;;;;;;5097062;27;20086;-88
2022/05/19 03:44:03;;;;;;;31.73;25.63;;;16.50;99.90;;;;;;5068146;28;20059;-88
2022/05/19 03:46:29;;;;;;;36.10;26.90;;;16.50;99.90;;;;;;5098768;27;20050;-88
2022/05/19 03:48:54;;;;;;;33.75;25.52;;;16.50;99.90;;;;;;5097840;28;20047;-88
2022/05/19 03:51:26;;;;;;;35.90;26.88;;;16.40;99.90;;;;;;5115123;27;20415;-87
2022/05/19 03:53:53;;;;;;;34.53;27.52;;;16.40;99.90;;;;;;5097372;27;20059;-88
2022/05/19 03:56:21;;;;;;;35.20;28.35;;;16.40;99.90;;;;;;5116683;27;20043;-88
2022/05/19 03:58:48;;;;;;;32.58;26.40;;;16.40;99.90;;;;;;5113112;27;20476;-88
2022/05/19 04:01:14;;;;;;;33.55;26.52;;;16.40;99.90;;;;;;5081292;27;20559;-89
2022/05/19 04:03:41;;;;;;;34.05;27.00;;;16.40;99.90;;;;;;5084441;28;20031;-88
2022/05/19 04:06:06;;;;;;;35.88;28.42;;;16.40;99.90;;;;;;5096237;28;20043;-88
2022/05/19 04:08:33;;;;;;;35.30;28.15;;;16.40;99.90;;;;;;5104162;28;20042;-88
2022/05/19 04:10:58;;;;;;;35.10;28.17;;;16.50;99.90;;;;;;5116797;27;20070;-88
2022/05/19 04:13:25;;;;;;;35.88;28.98;;;16.70;99.90;;;;;;5096998;28;20503;-89
2022/05/19 04:15:50;;;;;;;38.47;29.63;;;16.50;99.90;;;;;;5081939;28;20055;-88
2022/05/19 04:18:16;;;;;;;41.70;30.45;;;16.50;99.90;;;;;;5065331;28;20426;-88
2022/05/19 04:20:43;;;;;;;39.88;31.40;;;16.50;99.90;;;;;;5111925;28;20035;-88
2022/05/19 04:23:10;;;;;;;43.90;31.63;;;16.60;99.90;;;;;;5115334;28;20655;-88
2022/05/19 04:25:36;;;;;;;36.25;29.52;;;16.60;99.90;;;;;;5110736;28;20036;-88
2022/05/19 04:28:03;;;;;;;44.17;32.17;;;16.70;99.90;;;;;;5116025;28;20081;-88
2022/05/19 04:30:29;;;;;;;41.60;30.33;;;16.70;99.90;;;;;;5119242;28;20114;-88
2022/05/19 04:32:55;;;;;;;39.85;30.45;;;16.80;99.90;;;;;;5115518;28;20043;-88
2022/05/19 04:35:22;;;;;;;43.05;31.88;;;16.80;99.90;;;;;;5097978;28;20096;-88
2022/05/19 04:37:47;;;;;;;38.10;30.40;;;16.90;99.90;;;;;;5118269;27;20035;-88
2022/05/19 04:40:15;;;;;;;39.55;29.08;;;16.90;99.90;;;;;;5071920;27;20036;-88
2022/05/19 04:42:41;;;;;;;39.53;30.27;;;16.90;99.90;;;;;;5121507;27;20039;-86
2022/05/19 04:45:09;;;;;;;38.88;31.67;;;17.00;99.90;;;;;;5103509;27;20039;-89
2022/05/19 04:47:34;;;;;;;36.08;30.23;;;17.10;99.90;;;;;;5100758;28;20041;-88
2022/05/19 04:50:00;;;;;;;37.53;30.48;;;17.10;99.90;;;;;;5074190;27;20036;-88
2022/05/19 04:52:26;;;;;;;38.22;30.95;;;17.20;99.90;;;;;;5102580;27;20051;-88
2022/05/19 04:54:52;;;;;;;39.65;29.67;;;17.30;99.90;;;;;;5082156;27;20095;-88
2022/05/19 04:57:18;;;;;;;37.78;29.95;;;17.30;99.90;;;;;;5065538;27;20039;-88
2022/05/19 04:59:44;;;;;;;38.50;30.55;;;17.40;99.90;;;;;;5097975;27;20031;-87
2022/05/19 05:02:11;;;;;;;41.42;31.38;;;17.40;99.90;;;;;;5082626;27;20114;-88
2022/05/19 05:04:37;;;;;;;39.40;31.02;;;17.50;99.90;;;;;;5100607;27;20047;-88
2022/05/19 05:07:03;;;;;;;37.28;28.08;;;17.50;99.90;;;;;;5105481;27;20044;-88
2022/05/19 05:09:29;;;;;;;33.42;27.25;;;17.60;99.90;;;;;;5118003;27;20035;-87
2022/05/19 05:11:55;;;;;;;35.30;27.95;;;17.70;99.90;;;;;;5121441;27;20091;-88
2022/05/19 05:14:21;;;;;;;32.67;25.15;;;17.80;99.90;;;;;;5103191;27;20118;-87
2022/05/19 05:16:52;;;;;;;34.22;25.92;;;17.90;99.90;;;;;;5107177;27;20039;-88
2022/05/19 05:19:21;;;;;;;28.45;24.95;;;18.00;99.90;;;;;;5107714;27;20610;-87
2022/05/19 05:21:51;;;;;;;30.00;23.80;;;18.10;99.90;;;;;;5087197;27;20166;-87
2022/05/19 05:24:17;;;;;;;25.90;22.27;;;18.20;99.90;;;;;;5129950;27;20023;-87
2022/05/19 05:26:43;;;;;;;30.73;21.48;;;18.20;99.90;;;;;;5106694;27;20023;-86
2022/05/19 05:29:09;;;;;;;25.52;19.73;;;18.30;99.90;;;;;;5104437;27;20063;-87
2022/05/19 05:31:35;;;;;;;23.23;17.30;;;18.40;99.90;;;;;;5116935;27;20043;-87
2022/05/19 05:34:00;;;;;;;18.45;14.52;;;18.50;99.90;;;;;;5100904;27;20045;-87
2022/05/19 05:36:26;;;;;;;20.40;14.60;;;18.50;99.90;;;;;;5070477;27;20084;-86
2022/05/19 05:38:52;;;;;;;16.17;10.95;;;18.50;99.90;;;;;;5086225;27;20058;-87
2022/05/19 05:41:18;;;;;;;14.00;11.30;;;18.60;99.90;;;;;;5100816;27;20115;-87
2022/05/19 05:43:43;;;;;;;12.40;8.90;;;18.70;99.90;;;;;;5086655;27;20490;-86
2022/05/19 05:46:14;;;;;;;10.80;7.97;;;18.80;99.90;;;;;;5106564;27;20040;-87
2022/05/19 05:48:40;;;;;;;9.90;6.70;;;18.80;99.90;;;;;;5102169;27;20051;-87
2022/05/19 05:51:09;;;;;;;10.38;6.05;;;18.90;99.90;;;;;;5083038;27;20437;-87
2022/05/19 05:53:36;;;;;;;11.40;5.53;;;18.90;99.90;;;;;;5103219;27;20043;-87
2022/05/19 05:56:03;;;;;;;7.45;4.63;;;19.00;99.90;;;;;;5110286;27;20145;-86
2022/05/19 05:58:30;;;;;;;6.32;4.70;;;19.00;99.90;;;;;;5119299;27;20043;-85
2022/05/19 06:00:56;;;;;;;5.40;3.60;;;19.10;99.90;;;;;;5102149;28;20039;-86
2022/05/19 06:03:22;;;;;;;7.25;3.25;;;19.10;99.90;;;;;;5098928;27;20519;-86
2022/05/19 06:05:47;;;;;;;4.32;3.10;;;19.10;99.90;;;;;;5113671;27;20040;-86
2022/05/19 06:08:13;;;;;;;4.57;3.38;;;19.10;99.90;;;;;;5097235;27;20514;-86
2022/05/19 06:10:39;;;;;;;4.10;2.50;;;19.20;99.90;;;;;;5117934;27;20035;-86
2022/05/19 06:13:05;;;;;;;4.88;3.00;;;19.30;99.90;;;;;;5101293;27;20035;-86
2022/05/19 06:15:31;;;;;;;6.20;2.95;;;19.30;99.90;;;;;;5086900;27;20058;-87
2022/05/19 06:17:58;;;;;;;5.97;3.33;;;19.40;99.90;;;;;;5118043;27;20127;-88
2022/05/19 06:20:24;;;;;;;4.90;2.78;;;19.40;99.90;;;;;;5102672;27;20031;-88
2022/05/19 06:22:50;;;;;;;4.65;2.90;;;19.40;99.90;;;;;;5115537;27;20039;-87
2022/05/19 06:25:19;;;;;;;4.95;2.40;;;19.50;99.90;;;;;;5084031;27;20127;-87
2022/05/19 06:27:45;;;;;;;6.07;2.50;;;19.50;99.90;;;;;;5116350;27;20047;-87
2022/05/19 06:30:12;;;;;;;7.35;2.97;;;19.50;99.90;;;;;;5116913;27;20053;-88
2022/05/19 06:32:39;;;;;;;4.53;2.40;;;19.50;99.90;;;;;;5119673;27;20158;-88
2022/05/19 06:35:06;;;;;;;5.75;3.30;;;19.50;99.90;;;;;;5088188;27;20039;-89
2022/05/19 06:37:32;;;;;;;7.20;3.65;;;19.40;99.90;;;;;;5085876;27;20494;-89
2022/05/19 06:39:58;;;;;;;5.55;3.28;;;19.30;99.90;;;;;;5115539;27;20039;-87
2022/05/19 06:42:24;;;;;;;5.05;3.20;;;19.30;99.90;;;;;;5069818;27;20035;-88
2022/05/19 06:44:50;;;;;;;8.18;3.45;;;19.20;99.90;;;;;;5106237;27;20028;-88
2022/05/19 06:47:17;;;;;;;5.05;2.95;;;19.20;99.90;;;;;;5104865;27;20067;-89
2022/05/19 06:49:52;;;;;;;6.13;2.88;;;19.20;99.90;;;;;;5100307;27;20682;-89
2022/05/19 06:52:24;;;;;;;7.88;4.03;;;19.20;99.90;;;;;;5101029;27;20035;-89
2022/05/19 06:54:53;;;;;;;7.65;3.22;;;19.20;99.90;;;;;;5117690;27;20058;-89
2022/05/19 06:57:20;;;;;;;7.68;3.50;;;19.10;99.90;;;;;;5115373;27;20042;-89
2022/05/19 06:59:47;;;;;;;7.45;3.30;;;19.00;99.90;;;;;;5066705;28;20112;-90
2022/05/19 07:02:13;;;;;;;8.60;4.10;;;19.00;99.90;;;;;;5102606;27;20045;-88
2022/05/19 07:04:40;;;;;;;6.32;4.00;;;19.00;99.90;;;;;;5098844;27;20035;-87
2022/05/19 07:07:06;;;;;;;6.03;3.72;;;19.00;99.90;;;;;;5097873;27;20051;-89
2022/05/19 07:09:32;;;;;;;6.13;3.35;;;19.00;99.90;;;;;;5081750;27;20038;-89
2022/05/19 07:12:00;;;;;;;5.80;3.70;;;18.90;99.90;;;;;;5082900;27;20097;-90
2022/05/19 07:14:26;;;;;;;7.68;3.50;;;18.90;99.90;;;;;;5099197;27;20403;-89
2022/05/19 07:16:52;;;;;;;7.07;3.60;;;18.90;99.90;;;;;;5099179;27;20048;-89
2022/05/19 07:22:07;;;;;;;6.72;4.00;;;18.90;99.90;;;;;;5115659;27;20083;-88
2022/05/19 07:24:33;;;;;;;6.03;3.58;;;18.90;99.90;;;;;;5118571;27;20123;-87
2022/05/19 07:26:59;;;;;;;7.30;4.40;;;19.00;99.90;;;;;;5083063;28;20044;-87
2022/05/19 07:29:25;;;;;;;6.68;3.90;;;19.00;99.90;;;;;;5105229;27;20126;-87
2022/05/19 07:31:53;;;;;;;5.93;3.65;;;19.00;99.90;;;;;;5082672;27;20043;-87
2022/05/19 07:34:22;;;;;;;6.35;3.67;;;19.10;99.90;;;;;;5100723;27;20047;-88
2022/05/19 07:36:48;;;;;;;5.32;3.53;;;19.10;99.90;;;;;;5116709;27;20479;-88
2022/05/19 07:39:15;;;;;;;7.47;3.80;;;19.10;99.90;;;;;;5099795;27;20035;-88
2022/05/19 07:41:41;;;;;;;7.03;4.00;;;19.10;99.90;;;;;;5085109;28;20040;-88
2022/05/19 07:44:08;;;;;;;4.72;3.60;;;19.10;99.90;;;;;;5118770;27;20061;-88
2022/05/19 07:46:35;;;;;;;5.15;3.88;;;19.10;99.90;;;;;;5098845;28;20042;-89
2022/05/19 07:49:01;;;;;;;5.80;3.42;;;19.20;99.90;;;;;;5112786;27;20126;-88
2022/05/19 07:51:31;;;;;;;5.63;3.85;;;19.20;99.90;;;;;;5115698;27;20062;-88
2022/05/19 07:53:57;;;;;;;7.60;3.78;;;19.30;99.90;;;;;;5098366;27;20043;-88
2022/05/19 07:56:23;;;;;;;4.10;3.50;;;19.20;99.90;;;;;;5097405;27;20047;-88
2022/05/19 07:58:50;;;;;;;6.97;3.95;;;19.30;99.90;;;;;;5084165;27;20035;-86
2022/05/19 08:01:16;;;;;;;6.15;3.92;;;19.30;99.90;;;;;;5101070;28;20505;-88
2022/05/19 08:03:43;;;;;;;5.43;3.60;;;19.30;99.90;;;;;;5097957;27;20043;-88
2022/05/19 08:06:10;;;;;;;4.20;3.20;;;19.40;99.90;;;;;;5115987;28;20088;-88
2022/05/19 08:08:37;;;;;;;5.22;3.70;;;19.50;99.90;;;;;;5096807;28;20540;-87
2022/05/19 08:11:03;;;;;;;5.50;3.85;;;19.60;99.90;;;;;;5097255;28;20036;-88
2022/05/19 08:16:13;;;;;;;5.63;3.47;;;19.80;99.90;;;;;;5089017;28;20052;-88
2022/05/19 08:18:39;;;;;;;7.50;3.58;;;19.90;99.90;;;;;;5095967;28;20028;-88
2022/05/19 08:21:09;;;;;;;5.70;3.33;;;19.90;99.90;;;;;;5096609;28;20039;-88
2022/05/19 08:23:43;;;;;;;6.75;3.08;;;20.00;99.90;;;;;;5097873;28;20095;-88
2022/05/19 08:26:10;;;;;;;4.95;3.15;;;20.10;99.90;;;;;;5117442;28;20046;-88
2022/05/19 08:28:37;;;;;;;6.60;3.10;;;20.20;99.90;;;;;;5117988;28;20105;-87
2022/05/19 08:31:18;;;;;;;4.50;3.08;;;20.20;99.90;;;;;;5094420;28;20522;-87
2022/05/19 08:33:46;;;;;;;4.95;2.95;;;20.30;99.90;;;;;;5095920;28;20031;-89
2022/05/19 08:36:12;;;;;;;5.55;3.03;;;20.40;99.90;;;;;;5093992;28;20163;-88
2022/05/19 08:38:39;;;;;;;6.05;3.35;;;20.50;99.90;;;;;;5080092;28;20039;-88
2022/05/19 08:41:23;;;;;;;5.88;4.00;;;20.50;99.90;;;;;;5095096;28;20032;-88
2022/05/19 08:43:53;;;;;;;6.30;3.53;;;20.60;99.90;;;;;;5112660;28;20046;-87
2022/05/19 08:46:22;;;;;;;7.03;4.00;;;20.60;99.90;;;;;;5112345;28;20491;-88
2022/05/19 08:48:52;;;;;;;5.10;4.18;;;20.70;99.90;;;;;;5094254;28;20399;-88
2022/05/19 08:51:18;;;;;;;5.57;3.92;;;20.80;99.90;;;;;;5114916;28;20036;-87
2022/05/19 08:53:45;;;;;;;4.97;3.67;;;20.90;99.90;;;;;;5098134;28;20085;-87
2022/05/19 08:56:23;;;;;;;5.72;3.17;;;21.00;99.90;;;;;;5116412;28;20043;-88
2022/05/19 08:58:57;;;;;;;4.70;2.53;;;21.20;99.90;;;;;;5097507;28;20492;-87
2022/05/19 09:01:51;;;;;;;6.05;2.80;;;21.30;99.90;;;;;;5096345;28;20487;-87
2022/05/19 09:04:46;;;;;;;4.47;3.00;;;21.40;99.90;;;;;;5097872;28;20062;-88
2022/05/19 09:10:41;;;;;;;8.50;3.78;;;21.60;99.90;;;;;;5115383;28;20096;-88
2022/05/19 09:13:28;;;;;;;5.93;4.18;;;21.70;99.90;;;;;;5113507;28;20039;-87
2022/05/19 09:15:54;;;;;;;5.18;3.40;;;21.90;99.90;;;;;;5096373;28;20047;-87
2022/05/19 09:18:28;;;;;;;5.88;3.72;;;22.00;99.90;;;;;;5095827;28;20044;-87
2022/05/19 09:20:55;;;;;;;5.90;4.22;;;22.10;99.90;;;;;;5097557;28;20077;-88
2022/05/19 09:23:23;;;;;;;5.43;3.40;;;22.30;99.90;;;;;;5082565;27;20035;-87
2022/05/19 09:25:57;;;;;;;6.95;3.80;;;22.40;99.90;;;;;;5119762;27;20043;-87
2022/05/19 09:28:23;;;;;;;5.05;3.20;;;22.50;99.90;;;;;;5117694;27;20078;-87
2022/05/19 09:30:54;;;;;;;4.32;2.70;;;22.60;99.90;;;;;;5100985;27;20498;-87
2022/05/19 09:33:35;;;;;;;4.25;2.80;;;22.80;99.90;;;;;;5117309;27;20155;-87
2022/05/19 09:36:10;;;;;;;4.65;2.92;;;22.90;99.90;;;;;;5101892;27;20058;-87
2022/05/19 09:38:47;;;;;;;4.30;3.10;;;23.10;99.90;;;;;;5099686;27;20044;-88
2022/05/19 09:41:40;;;;;;;3.42;2.90;;;23.20;99.90;;;;;;5118292;27;20558;-88
2022/05/19 09:44:12;;;;;;;3.83;2.67;;;23.20;99.90;;;;;;5118678;27;20035;-87
2022/05/19 09:46:47;;;;;;;4.63;2.50;;;23.20;99.90;;;;;;5102551;27;20106;-87
2022/05/19 09:49:30;;;;;;;4.30;2.55;;;23.20;99.90;;;;;;5102147;27;20046;-87
2022/05/19 09:52:01;;;;;;;3.90;2.50;;;23.20;99.90;;;;;;5105968;27;20055;-87
2022/05/19 09:54:32;;;;;;;3.65;2.63;;;23.20;99.90;;;;;;5100643;27;20043;-87
2022/05/19 09:57:16;;;;;;;4.55;2.30;;;23.20;99.90;;;;;;5119103;27;20032;-87
2022/05/19 09:59:49;;;;;;;3.92;2.40;;;23.20;99.90;;;;;;5103016;27;20069;-87
2022/05/19 10:02:25;;;;;;;3.45;2.70;;;23.20;99.90;;;;;;5105193;27;20035;-86
2022/05/19 10:05:01;;;;;;;3.55;2.40;;;23.10;99.90;;;;;;5105381;27;20043;-87
2022/05/19 10:07:35;;;;;;;4.18;2.72;;;23.10;99.90;;;;;;5100979;27;20180;-87
2022/05/19 10:10:01;;;;;;;4.32;2.90;;;23.00;99.90;;;;;;5117809;27;20035;-87
2022/05/19 10:12:41;;;;;;;5.03;2.92;;;23.10;99.90;;;;;;5104146;27;20058;-88
2022/05/19 10:15:16;;;;;;;3.65;3.00;;;23.10;99.90;;;;;;5099099;27;20058;-87
2022/05/19 10:17:54;;;;;;;4.53;3.78;;;23.10;99.90;;;;;;5119553;27;20051;-87
2022/05/19 10:20:27;;;;;;;5.75;4.03;;;23.20;99.90;;;;;;5120871;27;20085;-87
2022/05/19 10:22:58;;;;;;;5.60;3.38;;;23.40;99.90;;;;;;5120082;27;20130;-87
2022/05/19 10:25:43;;;;;;;7.85;4.50;;;23.50;99.90;;;;;;5100924;27;20043;-88
2022/05/19 10:31:40;;;;;;;7.05;3.70;;;23.80;99.90;;;;;;5118896;27;20096;-87
2022/05/19 10:34:20;;;;;;;5.00;3.60;;;24.00;99.90;;;;;;5116597;27;20040;-87
2022/05/19 10:37:16;;;;;;;4.53;3.40;;;24.10;99.90;;;;;;5098683;27;20054;-88
2022/05/19 10:39:55;;;;;;;;;;;24.30;99.90;;;;;;5097365;28;20108;-89
2022/05/19 10:42:40;;;;;;;3.83;3.08;;;24.40;99.90;;;;;;5095387;27;19976;-89
2022/05/19 10:45:23;;;;;;;6.38;2.95;;;24.60;99.90;;;;;;5098289;27;20034;-88
2022/05/19 10:48:15;;;;;;;3.17;2.58;;;24.50;99.90;;;;;;5119200;27;20039;-88
2022/05/19 10:50:59;;;;;;;4.03;2.45;;;24.40;99.90;;;;;;5099662;27;20028;-88
2022/05/19 10:53:47;;;;;;;4.57;3.20;;;24.40;99.90;;;;;;5102068;28;20056;-88
2022/05/19 10:56:27;;;;;;;3.47;2.90;;;24.50;99.90;;;;;;5100840;28;20046;-88
2022/05/19 10:59:05;;;;;;;5.68;3.80;;;24.50;99.90;;;;;;5120926;27;20055;-88
2022/05/19 11:01:53;;;;;;;5.28;3.28;;;24.60;99.90;;;;;;5122095;27;20046;-88
2022/05/19 11:05:02;;;;;;;6.45;3.35;;;24.60;99.90;;;;;;5134699;27;20033;-88
2022/05/19 11:07:49;;;;;;;7.38;3.40;;;24.60;99.90;;;;;;5114261;28;20937;-87
2022/05/19 11:10:39;;;;;;;4.40;3.22;;;24.70;99.90;;;;;;5133831;27;20119;-89
2022/05/19 11:13:24;;;;;;;6.55;3.20;;;24.80;99.90;;;;;;5112976;27;20047;-88
2022/05/19 11:16:04;;;;;;;3.65;2.97;;;24.90;99.90;;;;;;5099700;27;20043;-88
2022/05/19 11:18:40;;;;;;;3.47;2.97;;;25.00;99.90;;;;;;5099222;27;20471;-88
2022/05/19 11:21:15;;;;;;;5.20;2.65;;;25.00;99.90;;;;;;5120338;27;20154;-87
2022/05/19 11:23:56;;;;;;;3.53;3.03;;;25.10;99.90;;;;;;5115511;27;20092;-90
2022/05/19 11:26:46;;;;;;;4.85;2.63;;;25.20;99.90;;;;;;5101786;27;20043;-87
2022/05/19 11:29:15;;;;;;;5.78;2.30;;;25.20;99.90;;;;;;5101284;27;20495;-88
2022/05/19 11:32:01;;;;;;;7.85;2.65;;;25.30;99.90;;;;;;5098682;28;20165;-89
2022/05/19 11:34:36;;;;;;;4.53;3.10;;;25.40;99.90;;;;;;5097441;27;20080;-86
2022/05/19 11:37:20;;;;;;;4.78;3.67;;;25.50;99.90;;;;;;5117028;27;20047;-88
2022/05/19 11:40:23;;;;;;;5.68;3.65;;;25.50;99.90;;;;;;5115467;27;20449;-88
2022/05/19 11:42:56;;;;;;;5.47;4.00;;;25.50;99.90;;;;;;5098731;27;20500;-88
2022/05/19 11:45:48;;;;;;;7.40;4.05;;;25.60;99.90;;;;;;5098136;27;20114;-89
2022/05/19 11:57:31;;;;;;;3.80;3.40;;;25.50;99.90;;;;;;5115134;27;20464;-88
2022/05/19 12:00:00;;;;;;;5.88;3.47;;;25.50;99.90;;;;;;5114740;27;20070;-87
2022/05/19 12:02:38;;;;;;;4.45;3.70;;;25.40;99.90;;;;;;5097123;28;20043;-88
2022/05/19 12:05:17;;;;;;;5.40;3.70;;;25.40;99.90;;;;;;5115112;27;20036;-88
2022/05/19 12:07:52;;;;;;;4.93;3.95;;;25.30;99.90;;;;;;5112151;27;20034;-87
2022/05/19 12:10:30;;;;;;;4.25;3.80;;;25.20;99.90;;;;;;5095527;28;20039;-87
2022/05/19 12:12:59;;;;;;;7.88;4.32;;;25.10;99.90;;;;;;5112875;27;20506;-87
2022/05/19 12:15:34;;;;;;;5.50;3.80;;;25.00;99.90;;;;;;5115835;28;20052;-88
2022/05/19 12:18:21;;;;;;;7.03;4.15;;;25.00;99.90;;;;;;5117535;28;20149;-87
2022/05/19 12:21:02;;;;;;;7.05;4.15;;;24.90;99.90;;;;;;5112533;28;20071;-87
2022/05/19 12:23:38;;;;;;;35.70;4.65;;;24.80;99.90;;;;;;5099765;28;20118;-87
2022/05/19 12:26:19;;;;;;;20.52;4.72;;;24.70;99.90;;;;;;5098275;28;20032;-87
2022/05/19 12:28:45;;;;;;;9.55;3.72;;;24.60;99.90;;;;;;5113798;28;20048;-87
2022/05/19 12:34:13;;;;;;;5.80;3.15;;;24.50;99.90;;;;;;5116118;28;20423;-88
2022/05/19 12:36:44;;;;;;;16.23;3.65;;;24.30;99.90;;;;;;5096457;28;20039;-88
2022/05/19 12:39:16;;;;;;;6.97;3.20;;;24.20;99.90;;;;;;5113633;28;20039;-88
2022/05/19 12:41:50;;;;;;;22.90;4.43;;;24.10;99.90;;;;;;5096859;28;20059;-88
2022/05/19 12:44:34;;;;;;;6.82;3.65;;;23.90;99.90;;;;;;5098266;28;20042;-88
2022/05/19 12:47:12;;;;;;;7.20;4.38;;;23.70;99.90;;;;;;5093987;28;20039;-89
2022/05/19 12:49:39;;;;;;;10.55;5.13;;;23.50;99.90;;;;;;5129484;27;20035;-88
2022/05/19 12:52:10;;;;;;;13.18;5.32;;;23.20;99.90;;;;;;5077434;28;20040;-87
2022/05/19 12:54:36;;;;;;;7.72;4.75;;;22.90;99.90;;;;;;5106486;28;20036;-87
2022/05/19 12:57:11;;;;;;;9.30;5.90;;;22.60;99.90;;;;;;5076393;28;20065;-88
2022/05/19 13:00:01;;;;;;;9.15;7.20;;;22.30;99.90;;;;;;5079793;28;20043;-87
2022/05/19 13:02:38;;;;;;;10.35;7.30;;;21.90;99.90;;;;;;5089478;28;20118;-88
2022/05/19 13:05:21;;;;;;;9.45;6.90;;;21.60;99.90;;;;;;5122727;27;20122;-86
2022/05/19 13:07:56;;;;;;;8.65;6.32;;;21.20;99.90;;;;;;5118359;28;20040;-87
2022/05/19 13:10:26;;;;;;;15.68;6.80;;;20.80;99.90;;;;;;5120331;27;20127;-87
2022/05/19 13:12:59;;;;;;;12.00;5.20;;;20.50;99.90;;;;;;5112658;27;20138;-88
2022/05/19 13:15:30;;;;;;;9.75;5.75;;;20.30;99.90;;;;;;5100725;28;20069;-88
2022/05/19 13:17:59;;;;;;;7.78;4.90;;;20.20;99.90;;;;;;5096363;28;20100;-87
2022/05/19 13:20:29;;;;;;;9.02;4.63;;;20.00;99.90;;;;;;5085371;28;20119;-87
2022/05/19 13:23:02;;;;;;;9.73;4.50;;;19.90;99.90;;;;;;5113624;28;20035;-88